createdAt,value
2023-02-01T00:00:06.738Z,4
2023-02-01T00:01:06.192Z,4
2023-02-01T00:02:06.848Z,3.7
2023-02-01T00:03:06.137Z,4
2023-02-01T00:04:06.698Z,3.7
2023-02-01T00:05:06.012Z,4
2023-02-01T00:06:06.584Z,3.7
2023-02-01T00:07:06.250Z,3.7
2023-02-01T00:08:05.752Z,3.7
2023-02-01T00:09:06.077Z,3.7
2023-02-01T00:10:05.897Z,3.7
2023-02-01T00:11:06.372Z,3.6
2023-02-01T00:12:06.124Z,3.7
2023-02-01T00:13:06.438Z,3.7
2023-02-01T00:14:05.940Z,4
2023-02-01T00:15:06.485Z,3.7
2023-02-01T00:16:06.611Z,3.6
2023-02-01T00:17:05.705Z,3.7
2023-02-01T00:18:06.322Z,3.7
2023-02-01T00:19:05.756Z,3.6
2023-02-01T00:20:06.286Z,3.6
2023-02-01T00:21:05.989Z,3.7
2023-02-01T00:22:06.400Z,3.6
2023-02-01T00:23:05.807Z,4
2023-02-01T00:24:06.287Z,3.6
2023-02-01T00:25:06.035Z,4
2023-02-01T00:26:06.503Z,4
2023-02-01T00:27:06.214Z,3.6
2023-02-01T00:28:06.376Z,3.6
2023-02-01T00:29:05.913Z,3.6
2023-02-01T00:30:06.660Z,4
2023-02-01T00:31:06.465Z,4
2023-02-01T00:32:06.819Z,3.6
2023-02-01T00:33:06.171Z,3.6
2023-02-01T00:34:05.824Z,4
2023-02-01T00:35:06.372Z,4
2023-02-01T00:36:06.009Z,3.6
2023-02-01T00:37:06.560Z,3.6
2023-02-01T00:38:05.786Z,4
2023-02-01T00:39:06.521Z,3.6
2023-02-01T00:40:06.202Z,4
2023-02-01T00:41:06.503Z,3.6
2023-02-01T00:42:06.001Z,4
2023-02-01T00:43:06.690Z,3.6
2023-02-01T00:44:05.942Z,3.6
2023-02-01T00:45:05.872Z,3.6
2023-02-01T00:46:06.493Z,4
2023-02-01T00:47:05.891Z,3.6
2023-02-01T00:48:06.418Z,3.6
2023-02-01T00:49:06.134Z,3.6
2023-02-01T00:50:05.824Z,3.6
2023-02-01T00:51:06.344Z,3.6
2023-02-01T00:52:05.903Z,3.6
2023-02-01T00:53:06.417Z,3.6
2023-02-01T00:54:06.043Z,4
2023-02-01T00:55:06.662Z,3.6
2023-02-01T00:56:06.014Z,3.6
2023-02-01T00:57:06.576Z,3.6
2023-02-01T00:58:06.157Z,4
2023-02-01T00:59:06.542Z,4
2023-02-01T01:00:06.283Z,3.6
2023-02-01T01:01:06.375Z,4
2023-02-01T01:02:06.697Z,3.6
2023-02-01T01:03:06.130Z,3.6
2023-02-01T01:04:05.903Z,3.6
2023-02-01T01:05:06.111Z,3.6
2023-02-01T01:06:05.919Z,3.6
2023-02-01T01:07:06.577Z,3.6
2023-02-01T01:08:06.129Z,3.6
2023-02-01T01:09:06.550Z,3.6
2023-02-01T01:10:06.265Z,3.6
2023-02-01T01:11:06.599Z,3
2023-02-01T01:12:06.177Z,3.6
2023-02-01T01:13:06.567Z,3.6
2023-02-01T01:14:05.991Z,3.6
2023-02-01T01:15:05.715Z,3.6
2023-02-01T01:16:05.994Z,3.6
2023-02-01T01:17:06.555Z,3.6
2023-02-01T01:18:06.126Z,3.6
2023-02-01T01:19:05.900Z,3.6
2023-02-01T01:20:06.349Z,3.6
2023-02-01T01:21:05.806Z,3.6
2023-02-01T01:22:06.319Z,3.6
2023-02-01T01:23:05.730Z,3.6
2023-02-01T01:24:06.507Z,3.5
2023-02-01T01:25:06.036Z,3.6
2023-02-01T01:26:07.729Z,3.5
2023-02-01T01:27:06.118Z,3.5
2023-02-01T01:28:05.740Z,3.5
2023-02-01T01:29:06.492Z,3.5
2023-02-01T01:30:06.078Z,3.5
2023-02-01T01:31:07.056Z,3.5
2023-02-01T01:32:06.348Z,3.5
2023-02-01T01:33:05.787Z,3
2023-02-01T01:34:06.340Z,3.5
2023-02-01T01:35:05.937Z,3.5
2023-02-01T01:36:06.395Z,3.5
2023-02-01T01:37:05.750Z,3.5
2023-02-01T01:38:06.492Z,3.5
2023-02-01T01:39:06.096Z,3.5
2023-02-01T01:40:06.627Z,3.5
2023-02-01T01:41:06.143Z,3.5
2023-02-01T01:42:06.765Z,3.4
2023-02-01T01:43:06.145Z,3.4
2023-02-01T01:44:05.682Z,3.4
2023-02-01T01:45:06.421Z,3
2023-02-01T01:46:05.964Z,3.4
2023-02-01T01:47:06.799Z,3.4
2023-02-01T01:48:06.309Z,3
2023-02-01T01:49:05.693Z,3
2023-02-01T01:50:06.234Z,3.4
2023-02-01T01:51:05.868Z,3.4
2023-02-01T01:52:06.509Z,3.4
2023-02-01T01:53:05.945Z,3.4
2023-02-01T01:54:06.390Z,3.4
2023-02-01T01:55:05.992Z,3.4
2023-02-01T01:56:05.782Z,3.4
2023-02-01T01:57:06.186Z,3.4
2023-02-01T01:58:05.711Z,3.4
2023-02-01T01:59:06.269Z,3
2023-02-01T02:00:05.633Z,3.4
2023-02-01T02:01:06.588Z,3.4
2023-02-01T02:02:06.357Z,3.4
2023-02-01T02:03:06.546Z,3.4
2023-02-01T02:04:06.056Z,3.4
2023-02-01T02:05:06.621Z,3.4
2023-02-01T02:06:06.570Z,3.4
2023-02-01T02:07:06.185Z,3.4
2023-02-01T02:08:06.472Z,3.4
2023-02-01T02:09:08.887Z,3.4
2023-02-01T02:10:06.424Z,3.4
2023-02-01T02:11:06.110Z,3.4
2023-02-01T02:12:05.657Z,3.4
2023-02-01T02:13:06.267Z,3.4
2023-02-01T02:14:06.643Z,3.4
2023-02-01T02:15:06.015Z,3.4
2023-02-01T02:16:06.143Z,3
2023-02-01T02:17:06.571Z,3
2023-02-01T02:18:05.997Z,3.4
2023-02-01T02:19:05.942Z,3.4
2023-02-01T02:20:06.348Z,3
2023-02-01T02:21:05.941Z,3.4
2023-02-01T02:22:06.281Z,3.4
2023-02-01T02:23:06.167Z,3.5
2023-02-01T02:24:06.689Z,3.4
2023-02-01T02:25:06.031Z,3.4
2023-02-01T02:26:05.759Z,3.5
2023-02-01T02:27:06.241Z,3.4
2023-02-01T02:28:05.835Z,3.4
2023-02-01T02:29:06.260Z,3.5
2023-02-01T02:30:06.094Z,3.4
2023-02-01T02:31:06.060Z,3.4
2023-02-01T02:32:06.308Z,3.4
2023-02-01T02:33:05.920Z,3.5
2023-02-01T02:34:06.537Z,3.4
2023-02-01T02:35:06.137Z,3.4
2023-02-01T02:36:06.465Z,3.5
2023-02-01T02:37:06.198Z,3.5
2023-02-01T02:38:06.642Z,3.4
2023-02-01T02:39:06.267Z,3.5
2023-02-01T02:40:05.721Z,3.5
2023-02-01T02:41:06.282Z,3.5
2023-02-01T02:42:05.921Z,3.5
2023-02-01T02:43:06.395Z,3.5
2023-02-01T02:44:06.280Z,3.5
2023-02-01T02:45:06.001Z,3.5
2023-02-01T02:46:06.215Z,3.5
2023-02-01T02:47:05.650Z,3
2023-02-01T02:48:06.229Z,3.5
2023-02-01T02:49:05.661Z,3.5
2023-02-01T02:50:06.232Z,3.5
2023-02-01T02:51:05.720Z,3.5
2023-02-01T02:52:06.367Z,3.5
2023-02-01T02:53:05.594Z,3.5
2023-02-01T02:54:06.267Z,3.5
2023-02-01T02:55:06.071Z,3.5
2023-02-01T02:56:05.735Z,3.5
2023-02-01T02:57:06.262Z,3.5
2023-02-01T02:58:05.705Z,3.5
2023-02-01T02:59:06.265Z,4
2023-02-01T03:00:05.693Z,3.5
2023-02-01T03:01:05.941Z,3.5
2023-02-01T03:02:06.453Z,3.5
2023-02-01T03:03:06.058Z,3.5
2023-02-01T03:04:06.257Z,3
2023-02-01T03:05:05.732Z,3.5
2023-02-01T03:06:06.548Z,3
2023-02-01T03:07:06.161Z,3
2023-02-01T03:08:06.872Z,3.5
2023-02-01T03:09:06.037Z,3.5
2023-02-01T03:10:06.644Z,3.5
2023-02-01T03:11:06.108Z,3.5
2023-02-01T03:12:05.741Z,3
2023-02-01T03:13:06.248Z,3.5
2023-02-01T03:14:05.803Z,3.5
2023-02-01T03:15:06.349Z,3.5
2023-02-01T03:16:05.825Z,3.5
2023-02-01T03:17:06.257Z,3.5
2023-02-01T03:18:05.736Z,3.5
2023-02-01T03:19:06.337Z,3
2023-02-01T03:20:05.661Z,3
2023-02-01T03:21:06.146Z,3.6
2023-02-01T03:22:05.752Z,3
2023-02-01T03:23:06.312Z,3.5
2023-02-01T03:24:05.884Z,3.5
2023-02-01T03:25:06.424Z,3.5
2023-02-01T03:26:05.867Z,3.5
2023-02-01T03:27:06.382Z,3.5
2023-02-01T03:28:06.030Z,3.5
2023-02-01T03:29:06.568Z,3.5
2023-02-01T03:30:06.018Z,3.5
2023-02-01T03:31:06.237Z,3
2023-02-01T03:32:05.851Z,3.5
2023-02-01T03:33:06.448Z,3
2023-02-01T03:34:05.829Z,3
2023-02-01T03:35:06.295Z,3.5
2023-02-01T03:36:05.898Z,3.5
2023-02-01T03:37:06.508Z,3.5
2023-02-01T03:38:05.926Z,3.5
2023-02-01T03:39:06.599Z,3.5
2023-02-01T03:40:06.004Z,3.5
2023-02-01T03:41:06.696Z,3.5
2023-02-01T03:42:05.963Z,3
2023-02-01T03:43:06.661Z,3.5
2023-02-01T03:44:06.028Z,3.5
2023-02-01T03:45:05.705Z,3
2023-02-01T03:46:06.400Z,3.5
2023-02-01T03:47:05.849Z,3.5
2023-02-01T03:48:06.556Z,3.5
2023-02-01T03:49:06.109Z,3.4
2023-02-01T03:50:05.765Z,3.4
2023-02-01T03:51:06.463Z,3.4
2023-02-01T03:52:05.984Z,3.4
2023-02-01T03:53:06.637Z,3.4
2023-02-01T03:54:06.160Z,3
2023-02-01T03:55:06.649Z,3.4
2023-02-01T03:56:06.265Z,3.4
2023-02-01T03:57:05.713Z,3.4
2023-02-01T03:58:06.334Z,3
2023-02-01T03:59:05.670Z,3.4
2023-02-01T04:00:06.384Z,3.4
2023-02-01T04:01:06.064Z,3.4
2023-02-01T04:02:06.688Z,3.4
2023-02-01T04:03:05.817Z,3.4
2023-02-01T04:04:06.728Z,3.4
2023-02-01T04:05:06.065Z,3.4
2023-02-01T04:06:06.493Z,3
2023-02-01T04:07:05.991Z,3.4
2023-02-01T04:08:06.606Z,3.4
2023-02-01T04:09:06.392Z,3
2023-02-01T04:10:05.779Z,3.4
2023-02-01T04:11:06.241Z,3.4
2023-02-01T04:12:05.887Z,3.4
2023-02-01T04:13:06.449Z,3.4
2023-02-01T04:14:05.813Z,3.4
2023-02-01T04:15:06.446Z,3.3
2023-02-01T04:16:05.873Z,3.4
2023-02-01T04:17:06.687Z,3
2023-02-01T04:18:06.193Z,3.4
2023-02-01T04:19:05.911Z,3.4
2023-02-01T04:20:06.422Z,3.4
2023-02-01T04:21:05.897Z,3.4
2023-02-01T04:22:06.360Z,3.4
2023-02-01T04:23:06.113Z,3.4
2023-02-01T04:24:06.515Z,3.4
2023-02-01T04:25:06.042Z,3.4
2023-02-01T04:26:05.750Z,3
2023-02-01T04:27:06.270Z,3.4
2023-02-01T04:28:05.890Z,3.4
2023-02-01T04:29:06.416Z,3.3
2023-02-01T04:30:06.093Z,3.4
2023-02-01T04:31:06.967Z,3.4
2023-02-01T04:32:06.133Z,3.4
2023-02-01T04:33:05.519Z,3.4
2023-02-01T04:34:06.167Z,3.4
2023-02-01T04:35:05.766Z,3.3
2023-02-01T04:36:06.467Z,3.3
2023-02-01T04:37:05.896Z,3.3
2023-02-01T04:38:06.568Z,3.3
2023-02-01T04:39:06.008Z,3.3
2023-02-01T04:40:06.535Z,3.3
2023-02-01T04:41:05.969Z,3.3
2023-02-01T04:42:05.766Z,3
2023-02-01T04:43:06.185Z,3.3
2023-02-01T04:44:05.993Z,3.3
2023-02-01T04:45:06.508Z,3.3
2023-02-01T04:46:06.539Z,3.3
2023-02-01T04:47:06.026Z,3.3
2023-02-01T04:48:06.597Z,3.3
2023-02-01T04:49:06.137Z,3.3
2023-02-01T04:50:06.342Z,3.3
2023-02-01T04:51:05.932Z,3.2
2023-02-01T04:52:06.539Z,3.2
2023-02-01T04:53:06.161Z,3.2
2023-02-01T04:54:05.706Z,3.2
2023-02-01T04:55:06.240Z,3.2
2023-02-01T04:56:05.792Z,3
2023-02-01T04:57:06.313Z,3.2
2023-02-01T04:58:05.931Z,3.2
2023-02-01T04:59:06.384Z,3.2
2023-02-01T05:00:05.946Z,3
2023-02-01T05:01:06.421Z,3.2
2023-02-01T05:02:05.748Z,3.2
2023-02-01T05:03:06.445Z,3.2
2023-02-01T05:04:06.027Z,3.2
2023-02-01T05:05:06.475Z,3
2023-02-01T05:06:06.153Z,3.2
2023-02-01T05:07:06.635Z,3.2
2023-02-01T05:08:06.219Z,3
2023-02-01T05:09:05.706Z,3.2
2023-02-01T05:10:06.132Z,3.2
2023-02-01T05:11:05.956Z,3.2
2023-02-01T05:12:06.520Z,3.2
2023-02-01T05:13:06.061Z,3.2
2023-02-01T05:14:07.000Z,3.2
2023-02-01T05:15:06.208Z,3.2
2023-02-01T05:16:06.628Z,3
2023-02-01T05:17:06.148Z,3.2
2023-02-01T05:18:06.495Z,3
2023-02-01T05:19:06.180Z,3.2
2023-02-01T05:20:06.659Z,3
2023-02-01T05:21:06.230Z,3.2
2023-02-01T05:22:06.683Z,3
2023-02-01T05:23:06.165Z,3.2
2023-02-01T05:24:05.785Z,3.2
2023-02-01T05:25:08.479Z,3.2
2023-02-01T05:26:05.937Z,3.2
2023-02-01T05:27:06.421Z,3.2
2023-02-01T05:28:05.952Z,3
2023-02-01T05:29:06.409Z,3.2
2023-02-01T05:30:05.913Z,3.2
2023-02-01T05:31:06.158Z,3
2023-02-01T05:32:25.540Z,3
2023-02-01T05:33:05.932Z,3.2
2023-02-01T05:34:06.418Z,3.2
2023-02-01T05:35:06.002Z,3.2
2023-02-01T05:36:08.920Z,3
2023-02-01T05:37:06.033Z,3.2
2023-02-01T05:38:05.774Z,3.2
2023-02-01T05:39:06.169Z,3.1
2023-02-01T05:40:05.887Z,3.1
2023-02-01T05:41:06.282Z,3.1
2023-02-01T05:42:05.765Z,3.1
2023-02-01T05:43:06.462Z,3.1
2023-02-01T05:44:05.975Z,3
2023-02-01T05:45:06.347Z,3.2
2023-02-01T05:46:06.157Z,3.2
2023-02-01T05:47:05.868Z,3.1
2023-02-01T05:48:06.227Z,3.1
2023-02-01T05:49:05.793Z,3.1
2023-02-01T05:50:06.547Z,3.1
2023-02-01T05:51:05.935Z,3.1
2023-02-01T05:52:06.515Z,3.1
2023-02-01T05:53:05.997Z,3
2023-02-01T05:54:06.548Z,3.2
2023-02-01T05:55:06.233Z,3
2023-02-01T05:56:06.793Z,3.1
2023-02-01T05:57:06.242Z,3.1
2023-02-01T05:58:05.647Z,3.1
2023-02-01T05:59:06.222Z,3.1
2023-02-01T06:00:05.737Z,3.2
2023-02-01T06:01:05.705Z,3.2
2023-02-01T06:02:06.255Z,3.1
2023-02-01T06:03:06.056Z,3
2023-02-01T06:04:06.578Z,3
2023-02-01T06:05:05.838Z,3.1
2023-02-01T06:06:06.435Z,3.2
2023-02-01T06:07:05.886Z,3
2023-02-01T06:08:06.541Z,3.2
2023-02-01T06:09:06.111Z,3.1
2023-02-01T06:10:05.853Z,3.1
2023-02-01T06:11:06.174Z,3.2
2023-02-01T06:12:06.314Z,3.2
2023-02-01T06:13:05.837Z,3.2
2023-02-01T06:14:06.480Z,3.2
2023-02-01T06:15:06.170Z,3.2
2023-02-01T06:16:06.348Z,3.2
2023-02-01T06:17:06.314Z,3.2
2023-02-01T06:18:05.978Z,3.2
2023-02-01T06:19:06.582Z,3.2
2023-02-01T06:20:06.193Z,3.2
2023-02-01T06:21:06.695Z,3.2
2023-02-01T06:22:06.183Z,3
2023-02-01T06:23:05.845Z,3.2
2023-02-01T06:24:06.299Z,3.2
2023-02-01T06:25:05.699Z,3.2
2023-02-01T06:26:06.315Z,3.3
2023-02-01T06:27:05.810Z,3.3
2023-02-01T06:28:06.207Z,3.3
2023-02-01T06:29:05.913Z,3.3
2023-02-01T06:30:06.645Z,3.3
2023-02-01T06:31:06.722Z,3
2023-02-01T06:32:05.884Z,3.3
2023-02-01T06:33:06.392Z,3.3
2023-02-01T06:34:05.997Z,3
2023-02-01T06:35:06.401Z,3.3
2023-02-01T06:36:05.851Z,3
2023-02-01T06:37:06.462Z,3.3
2023-02-01T06:38:06.038Z,3.3
2023-02-01T06:39:06.619Z,3.3
2023-02-01T06:40:06.247Z,3.3
2023-02-01T06:41:05.593Z,3.3
2023-02-01T06:42:06.116Z,3
2023-02-01T06:43:05.619Z,3.3
2023-02-01T06:44:06.368Z,3
2023-02-01T06:45:05.695Z,3.3
2023-02-01T06:46:05.783Z,3.2
2023-02-01T06:47:09.064Z,3.2
2023-02-01T06:48:05.880Z,3.3
2023-02-01T06:49:06.158Z,3.3
2023-02-01T06:50:05.782Z,3.3
2023-02-01T06:51:06.397Z,3.2
2023-02-01T06:52:05.877Z,3.2
2023-02-01T06:53:06.549Z,3.3
2023-02-01T06:54:06.178Z,3.2
2023-02-01T06:55:05.712Z,3.2
2023-02-01T06:56:06.292Z,3.3
2023-02-01T06:57:05.786Z,3.2
2023-02-01T06:58:06.229Z,3.3
2023-02-01T06:59:05.759Z,3.3
2023-02-01T07:00:06.183Z,3.3
2023-02-01T07:01:05.952Z,3
2023-02-01T07:02:06.376Z,3
2023-02-01T07:03:05.684Z,3.4
2023-02-01T07:04:06.389Z,3.4
2023-02-01T07:05:05.880Z,3.4
2023-02-01T07:06:06.349Z,3
2023-02-01T07:07:06.005Z,3
2023-02-01T07:08:06.618Z,3.4
2023-02-01T07:09:05.901Z,3.4
2023-02-01T07:10:06.413Z,3.4
2023-02-01T07:11:06.081Z,3.4
2023-02-01T07:12:05.764Z,3.4
2023-02-01T07:13:06.156Z,3.4
2023-02-01T07:14:05.668Z,3
2023-02-01T07:15:06.391Z,3.5
2023-02-01T07:16:05.926Z,3.4
2023-02-01T07:17:06.255Z,3.5
2023-02-01T07:18:05.694Z,3.4
2023-02-01T07:19:06.401Z,3.5
2023-02-01T07:20:06.046Z,3.4
2023-02-01T07:21:06.522Z,3.4
2023-02-01T07:22:06.171Z,3.5
2023-02-01T07:23:05.729Z,3.5
2023-02-01T07:24:06.337Z,3.5
2023-02-01T07:25:07.812Z,3.5
2023-02-01T07:26:06.515Z,3.5
2023-02-01T07:27:05.892Z,4
2023-02-01T07:28:06.687Z,3.6
2023-02-01T07:29:06.129Z,3.6
2023-02-01T07:30:05.807Z,3.6
2023-02-01T07:31:06.153Z,3.5
2023-02-01T07:32:06.620Z,3.6
2023-02-01T07:33:06.007Z,3.6
2023-02-01T07:34:06.605Z,3.6
2023-02-01T07:35:06.015Z,3.6
2023-02-01T07:36:05.698Z,3.6
2023-02-01T07:37:06.601Z,3.6
2023-02-01T07:38:06.281Z,3.6
2023-02-01T07:39:05.896Z,3.6
2023-02-01T07:40:06.285Z,3.7
2023-02-01T07:41:05.904Z,3.6
2023-02-01T07:42:06.198Z,3.6
2023-02-01T07:43:05.856Z,3.7
2023-02-01T07:44:06.286Z,3.7
2023-02-01T07:45:23.517Z,3.7
2023-02-01T07:46:05.959Z,3.7
2023-02-01T07:47:06.282Z,3.7
2023-02-01T07:48:05.931Z,3.8
2023-02-01T07:49:06.507Z,4
2023-02-01T07:50:06.017Z,3.8
2023-02-01T07:51:06.596Z,3.8
2023-02-01T07:52:06.114Z,4
2023-02-01T07:53:06.554Z,3.8
2023-02-01T07:54:06.110Z,4
2023-02-01T07:55:06.596Z,3.9
2023-02-01T07:56:06.189Z,3.9
2023-02-01T07:57:05.755Z,3.8
2023-02-01T07:58:06.405Z,3.9
2023-02-01T07:59:05.993Z,3.9
2023-02-01T08:00:06.541Z,3.9
2023-02-01T08:01:05.980Z,4
2023-02-01T08:02:06.619Z,4
2023-02-01T08:03:05.940Z,3.9
2023-02-01T08:04:06.750Z,3.9
2023-02-01T08:05:05.977Z,3.9
2023-02-01T08:06:06.599Z,3.9
2023-02-01T08:07:05.910Z,4
2023-02-01T08:08:06.622Z,3.9
2023-02-01T08:09:06.003Z,4
2023-02-01T08:10:06.617Z,4
2023-02-01T08:11:06.215Z,3.9
2023-02-01T08:12:05.805Z,3.9
2023-02-01T08:13:06.224Z,4
2023-02-01T08:14:05.978Z,3.9
2023-02-01T08:15:06.363Z,3.9
2023-02-01T08:16:06.223Z,3.9
2023-02-01T08:17:05.804Z,3.9
2023-02-01T08:18:06.344Z,3.9
2023-02-01T08:19:06.208Z,3.9
2023-02-01T08:20:06.623Z,3.9
2023-02-01T08:21:05.982Z,3.9
2023-02-01T08:22:05.909Z,4
2023-02-01T08:23:06.453Z,3.9
2023-02-01T08:24:06.089Z,3.9
2023-02-01T08:25:05.730Z,3.9
2023-02-01T08:26:06.313Z,4
2023-02-01T08:27:05.768Z,3.9
2023-02-01T08:28:06.528Z,3.9
2023-02-01T08:29:05.811Z,3.9
2023-02-01T08:30:06.429Z,3.9
2023-02-01T08:31:06.071Z,3.9
2023-02-01T08:32:06.699Z,3.9
2023-02-01T08:33:06.044Z,3.9
2023-02-01T08:34:06.570Z,4
2023-02-01T08:35:06.027Z,3.9
2023-02-01T08:36:05.750Z,4
2023-02-01T08:37:06.296Z,3.9
2023-02-01T08:38:05.840Z,3.9
2023-02-01T08:39:06.464Z,3.9
2023-02-01T08:40:06.040Z,3.9
2023-02-01T08:41:06.405Z,3.9
2023-02-01T08:42:05.874Z,3.9
2023-02-01T08:43:05.745Z,4
2023-02-01T08:44:06.224Z,3.9
2023-02-01T08:45:05.764Z,3.9
2023-02-01T08:46:06.542Z,4
2023-02-01T08:47:05.730Z,3.9
2023-02-01T08:48:06.354Z,4
2023-02-01T08:49:05.791Z,4
2023-02-01T08:50:06.403Z,4
2023-02-01T08:51:05.931Z,4
2023-02-01T08:52:18.169Z,4
2023-02-01T08:53:05.823Z,4
2023-02-01T08:54:06.502Z,4
2023-02-01T08:55:06.194Z,4
2023-02-01T08:56:05.758Z,4
2023-02-01T08:57:06.388Z,4
2023-02-01T08:58:06.069Z,4
2023-02-01T08:59:06.756Z,4
2023-02-01T09:00:06.134Z,4
2023-02-01T09:01:06.772Z,4
2023-02-01T09:02:06.121Z,4
2023-02-01T09:03:06.657Z,4.1
2023-02-01T09:04:06.605Z,4
2023-02-01T09:05:05.831Z,4.1
2023-02-01T09:06:06.521Z,4.1
2023-02-01T09:07:06.073Z,4.1
2023-02-01T09:08:06.671Z,4.1
2023-02-01T09:09:06.128Z,4.1
2023-02-01T09:10:05.770Z,4.1
2023-02-01T09:11:07.817Z,4.1
2023-02-01T09:12:05.795Z,4
2023-02-01T09:13:06.356Z,4
2023-02-01T09:14:05.728Z,4
2023-02-01T09:15:06.402Z,4.1
2023-02-01T09:16:06.212Z,4.1
2023-02-01T09:17:06.325Z,4.1
2023-02-01T09:18:06.038Z,4.1
2023-02-01T09:19:29.581Z,4
2023-02-01T09:20:06.590Z,4.2
2023-02-01T09:21:06.061Z,4.2
2023-02-01T09:22:06.614Z,4.2
2023-02-01T09:23:06.103Z,4.3
2023-02-01T09:24:05.669Z,4.2
2023-02-01T09:25:06.512Z,4.3
2023-02-01T09:26:05.854Z,4.3
2023-02-01T09:27:06.699Z,4.3
2023-02-01T09:28:06.037Z,4.4
2023-02-01T09:29:06.470Z,4.4
2023-02-01T09:30:06.015Z,4.4
2023-02-01T09:31:06.857Z,4.4
2023-02-01T09:32:09.144Z,4.4
2023-02-01T09:33:06.428Z,4.5
2023-02-01T09:34:06.027Z,4.4
2023-02-01T09:35:05.631Z,4.5
2023-02-01T09:36:06.360Z,4.5
2023-02-01T09:37:05.792Z,4.6
2023-02-01T09:38:06.367Z,4.6
2023-02-01T09:39:06.035Z,4.6
2023-02-01T09:40:06.408Z,4.6
2023-02-01T09:41:06.150Z,4.6
2023-02-01T09:42:06.568Z,4.6
2023-02-01T09:43:06.332Z,4.6
2023-02-01T09:44:05.768Z,4.6
2023-02-01T09:45:06.433Z,4.6
2023-02-01T09:46:06.616Z,4.6
2023-02-01T09:47:06.168Z,5
2023-02-01T09:48:05.833Z,4.7
2023-02-01T09:49:06.107Z,4.7
2023-02-01T09:50:05.843Z,4.7
2023-02-01T09:51:06.137Z,5
2023-02-01T09:52:05.748Z,4.7
2023-02-01T09:53:06.366Z,4.7
2023-02-01T09:54:05.759Z,4.8
2023-02-01T09:55:06.253Z,4.8
2023-02-01T09:56:05.810Z,4.8
2023-02-01T09:57:06.383Z,4.8
2023-02-01T09:58:05.847Z,4.8
2023-02-01T09:59:06.482Z,4.8
2023-02-01T10:00:05.988Z,4.9
2023-02-01T10:01:06.107Z,5
2023-02-01T10:02:06.409Z,4.9
2023-02-01T10:03:05.806Z,4.9
2023-02-01T10:04:06.167Z,4.9
2023-02-01T10:05:05.844Z,4.9
2023-02-01T10:06:06.321Z,4.9
2023-02-01T10:07:05.793Z,4.9
2023-02-01T10:08:06.388Z,4.9
2023-02-01T10:09:05.632Z,4.9
2023-02-01T10:10:06.660Z,4.9
2023-02-01T10:11:05.924Z,4.9
2023-02-01T10:12:06.482Z,5
2023-02-01T10:13:05.984Z,5
2023-02-01T10:14:06.546Z,5
2023-02-01T10:15:06.097Z,5
2023-02-01T10:16:06.722Z,5
2023-02-01T10:17:06.221Z,5
2023-02-01T10:18:05.789Z,5
2023-02-01T10:19:06.227Z,5
2023-02-01T10:20:05.928Z,5
2023-02-01T10:21:06.410Z,4.9
2023-02-01T10:22:05.912Z,5
2023-02-01T10:23:36.762Z,4.8
2023-02-01T10:24:19.726Z,5
2023-02-01T10:25:06.163Z,4.8
2023-02-01T10:26:06.034Z,5
2023-02-01T10:27:06.393Z,4.8
2023-02-01T10:28:05.862Z,4.8
2023-02-01T10:29:06.602Z,4.7
2023-02-01T10:30:06.183Z,4.7
2023-02-01T10:31:06.757Z,4.7
2023-02-01T10:32:05.938Z,4.7
2023-02-01T10:33:06.459Z,4.7
2023-02-01T10:34:06.034Z,4.7
2023-02-01T10:35:06.437Z,4
2023-02-01T10:36:05.996Z,4.6
2023-02-01T10:37:06.313Z,4.6
2023-02-01T10:38:05.966Z,4.6
2023-02-01T10:39:06.766Z,4.6
2023-02-01T10:40:06.234Z,4.6
2023-02-01T10:41:05.765Z,4.5
2023-02-01T10:42:06.276Z,4.5
2023-02-01T10:43:05.735Z,4.6
2023-02-01T10:44:06.390Z,4.6
2023-02-01T10:45:05.928Z,4.6
2023-02-01T10:46:05.917Z,4
2023-02-01T10:47:06.365Z,4
2023-02-01T10:48:05.967Z,4.6
2023-02-01T10:49:06.321Z,4.6
2023-02-01T10:50:05.952Z,4.5
2023-02-01T10:51:06.491Z,4.6
2023-02-01T10:52:06.168Z,4.5
2023-02-01T10:53:06.627Z,4.6
2023-02-01T10:54:06.152Z,4.4
2023-02-01T10:55:05.757Z,4.4
2023-02-01T10:56:06.434Z,4
2023-02-01T10:57:05.854Z,4.4
2023-02-01T10:58:06.290Z,4.4
2023-02-01T10:59:05.922Z,4.4
2023-02-01T11:00:05.790Z,4.4
2023-02-01T11:01:06.329Z,4
2023-02-01T11:02:06.008Z,4.4
2023-02-01T11:03:06.517Z,4.3
2023-02-01T11:04:05.869Z,4.4
2023-02-01T11:05:06.400Z,4.4
2023-02-01T11:06:05.346Z,4.4
2023-02-01T11:07:06.413Z,4.3
2023-02-01T11:08:06.285Z,4.3
2023-02-01T11:09:05.702Z,4.3
2023-02-01T11:10:06.205Z,4.3
2023-02-01T11:11:06.085Z,4.3
2023-02-01T11:12:06.582Z,4.3
2023-02-01T11:13:06.046Z,4.3
2023-02-01T11:14:06.421Z,4.4
2023-02-01T11:15:06.102Z,4.3
2023-02-01T11:16:06.834Z,4.3
2023-02-01T11:17:06.137Z,4.4
2023-02-01T11:18:06.537Z,4.4
2023-02-01T11:19:06.250Z,4.4
2023-02-01T11:20:05.777Z,4.4
2023-02-01T11:21:06.344Z,4
2023-02-01T11:22:05.941Z,4.4
2023-02-01T11:23:06.644Z,4.4
2023-02-01T11:24:06.107Z,4.4
2023-02-01T11:25:06.525Z,4.4
2023-02-01T11:26:06.199Z,4.4
2023-02-01T11:27:09.189Z,4.4
2023-02-01T11:28:06.094Z,4.4
2023-02-01T11:29:06.609Z,4.5
2023-02-01T11:30:06.344Z,4.4
2023-02-01T11:31:06.125Z,4.4
2023-02-01T11:32:06.274Z,4.4
2023-02-01T11:33:08.386Z,4.5
2023-02-01T11:34:06.243Z,4.4
2023-02-01T11:35:05.848Z,4.4
2023-02-01T11:36:06.241Z,4.4
2023-02-01T11:37:05.800Z,4.4
2023-02-01T11:38:06.381Z,4
2023-02-01T11:39:07.166Z,4.4
2023-02-01T11:40:06.545Z,4.4
2023-02-01T11:41:06.068Z,4.4
2023-02-01T11:42:05.679Z,4.4
2023-02-01T11:43:06.303Z,4.4
2023-02-01T11:44:05.879Z,4.4
2023-02-01T11:45:08.263Z,4
2023-02-01T11:46:05.847Z,4.4
2023-02-01T11:47:06.366Z,4.4
2023-02-01T11:48:05.821Z,4.4
2023-02-01T11:49:06.255Z,4.4
2023-02-01T11:50:05.812Z,4.4
2023-02-01T11:51:08.769Z,4.4
2023-02-01T11:52:05.809Z,4
2023-02-01T11:53:06.501Z,4.4
2023-02-01T11:54:05.903Z,4.4
2023-02-01T11:55:06.536Z,4.3
2023-02-01T11:56:06.174Z,4
2023-02-01T11:57:07.944Z,4.3
2023-02-01T11:58:06.230Z,4.3
2023-02-01T11:59:05.701Z,4.3
2023-02-01T12:00:06.090Z,4.3
2023-02-01T12:01:06.423Z,4.3
2023-02-01T12:02:06.254Z,4
2023-02-01T12:03:06.748Z,4.3
2023-02-01T12:04:06.007Z,4.3
2023-02-01T12:05:06.640Z,4.3
2023-02-01T12:06:06.325Z,4.3
2023-02-01T12:07:05.781Z,4.4
2023-02-01T12:08:06.257Z,4.3
2023-02-01T12:09:05.758Z,4.3
2023-02-01T12:10:06.306Z,4.3
2023-02-01T12:11:06.022Z,4.3
2023-02-01T12:12:06.577Z,4
2023-02-01T12:13:06.007Z,4.3
2023-02-01T12:14:06.426Z,4.3
2023-02-01T12:15:06.070Z,4.3
2023-02-01T12:16:06.813Z,4.3
2023-02-01T12:17:06.361Z,4.4
2023-02-01T12:18:05.979Z,4.4
2023-02-01T12:19:06.308Z,4.4
2023-02-01T12:20:05.817Z,4.4
2023-02-01T12:21:06.489Z,4.4
2023-02-01T12:22:05.959Z,4
2023-02-01T12:23:06.530Z,4.4
2023-02-01T12:24:06.002Z,4.4
2023-02-01T12:25:06.550Z,4.4
2023-02-01T12:26:06.237Z,4.4
2023-02-01T12:27:06.696Z,4.4
2023-02-01T12:28:06.152Z,4.5
2023-02-01T12:29:05.686Z,4.5
2023-02-01T12:30:06.188Z,4.5
2023-02-01T12:31:05.973Z,4
2023-02-01T12:32:06.666Z,4
2023-02-01T12:33:06.055Z,4.7
2023-02-01T12:34:06.752Z,4.7
2023-02-01T12:35:06.145Z,5
2023-02-01T12:36:06.532Z,4.8
2023-02-01T12:37:07.667Z,4.8
2023-02-01T12:38:05.886Z,4.8
2023-02-01T12:39:06.096Z,4.8
2023-02-01T12:40:05.870Z,4.8
2023-02-01T12:41:06.296Z,4.8
2023-02-01T12:42:05.958Z,4.8
2023-02-01T12:43:06.781Z,4.8
2023-02-01T12:44:06.245Z,5
2023-02-01T12:45:05.783Z,4.8
2023-02-01T12:46:06.382Z,4.8
2023-02-01T12:47:05.906Z,5
2023-02-01T12:48:06.415Z,4.8
2023-02-01T12:49:05.996Z,4.8
2023-02-01T12:50:06.546Z,4.8
2023-02-01T12:51:06.195Z,4.7
2023-02-01T12:52:05.485Z,4.7
2023-02-01T12:53:06.136Z,4.7
2023-02-01T12:54:06.636Z,4.7
2023-02-01T12:55:06.173Z,4.7
2023-02-01T12:56:05.725Z,4.7
2023-02-01T12:57:06.352Z,4.7
2023-02-01T12:58:05.905Z,5
2023-02-01T12:59:06.578Z,5
2023-02-01T13:00:06.055Z,4.8
2023-02-01T13:01:06.460Z,4.9
2023-02-01T13:02:05.736Z,4.9
2023-02-01T13:03:06.232Z,4.9
2023-02-01T13:04:06.101Z,5
2023-02-01T13:05:06.583Z,5
2023-02-01T13:06:06.020Z,5
2023-02-01T13:07:06.551Z,5
2023-02-01T13:08:06.117Z,5
2023-02-01T13:09:06.549Z,5.1
2023-02-01T13:10:06.166Z,5
2023-02-01T13:11:06.759Z,5.1
2023-02-01T13:12:06.211Z,5.1
2023-02-01T13:13:05.945Z,5.1
2023-02-01T13:14:06.392Z,5.1
2023-02-01T13:15:05.823Z,5.1
2023-02-01T13:16:05.625Z,5.1
2023-02-01T13:17:06.561Z,5.1
2023-02-01T13:18:05.758Z,5.1
2023-02-01T13:19:06.183Z,5.1
2023-02-01T13:20:05.830Z,5
2023-02-01T13:21:06.221Z,5.1
2023-02-01T13:22:05.847Z,5.1
2023-02-01T13:23:06.417Z,5.1
2023-02-01T13:24:05.926Z,5.1
2023-02-01T13:25:06.122Z,5.1
2023-02-01T13:26:05.899Z,5.1
2023-02-01T13:27:06.506Z,5
2023-02-01T13:28:06.047Z,5
2023-02-01T13:29:06.582Z,5
2023-02-01T13:30:06.235Z,5
2023-02-01T13:31:06.033Z,5
2023-02-01T13:32:06.438Z,5
2023-02-01T13:33:59.051Z,5
2023-02-01T13:34:06.685Z,5
2023-02-01T13:35:06.235Z,5
2023-02-01T13:36:06.690Z,4.9
2023-02-01T13:37:06.135Z,4.9
2023-02-01T13:38:06.679Z,4.9
2023-02-01T13:39:06.105Z,4.9
2023-02-01T13:40:05.619Z,5
2023-02-01T13:41:06.320Z,4.9
2023-02-01T13:42:05.832Z,4.9
2023-02-01T13:43:06.367Z,4.9
2023-02-01T13:44:05.875Z,5
2023-02-01T13:45:06.275Z,4.9
2023-02-01T13:46:06.650Z,4.8
2023-02-01T13:47:06.167Z,4.9
2023-02-01T13:48:06.584Z,4.9
2023-02-01T13:49:06.026Z,4.9
2023-02-01T13:50:06.665Z,4.9
2023-02-01T13:51:06.097Z,4.8
2023-02-01T13:52:06.473Z,4.9
2023-02-01T13:53:06.181Z,4.9
2023-02-01T13:54:05.775Z,5
2023-02-01T13:55:06.214Z,4.9
2023-02-01T13:56:05.838Z,4.9
2023-02-01T13:57:06.267Z,4.9